ホノルル の空港の天気 - METARとTAF

ホノルル国際空港 ( PHNL / HNL ) - アメリカ ハワイ州ホノルル
飛行場実況気象(Metar)
観測時間05/29 06:53 HST (05/29 16:53 UTC)
風向・風速東北東 4m/s
視程10km以上
天気現象
少しの雲 雲底高度 760m
全天の4割程度の雲 雲底高度 1370m
全天の4割程度の雲 雲底高度 1830m
気温25℃
湿度64%
気圧1020.9hPa
METARPHNL 291653Z 07007KT 10SM FEW025 SCT045 SCT060 25/18 A3015 RMK AO2 SLP209 T02500178
過去の天気等 Google飛行場航空写真 Wunderground天気予報

過去48時間のMETAR

飛行場予報(TAF)
発表時間: 5/29 01:20 HST (5/29 11:20 UTC)
予報対象時間: 29日2時 HST ~ 30日8時 HST
風向・風速東北東 4m/s
視程10km以上
少しの雲 雲底高度 760m
全天の4割程度の雲 雲底高度 1220m
全天の4割程度の雲 雲底高度 7620m
29日11時 HST から
風向・風速東北東 7m/s 瞬間風速 11m/s
視程10km以上
少しの雲 雲底高度 760m
全天の4割程度の雲 雲底高度 1370m
29日20時 HST から
風向・風速東北東 3m/s
視程10km以上
少しの雲 雲底高度 760m
全天の4割程度の雲 雲底高度 1220m
PHNL 291120Z 2912/3018 07007KT P6SM FEW025 SCT040 SCT250
FM292100 06014G22KT P6SM FEW025 SCT045
FM300600 06005KT P6SM FEW025 SCT040